KJYO

Leesburg Executive Airport

Leesburg, Virginia, USA
METAR KJYO 202015Z AUTO 12004KT 10SM BKN024 BKN031 BKN037 25/21 A3008 RMK AO2
Observed Flight Rules
Aug-20 @ 20:15 UTC (16 minutes ago) Marginal Visual Flight Rules
Wind Visibility Clouds
120° at 4 knots 10 miles
  • Broken at 2,400' AGL
  • Broken at 3,100' AGL
  • Broken at 3,700' AGL
Temperatures Readings
Current 25°C / 77°F
Dewpoint 21°C / 70°F
Humidity 79%
Altimeter 30.08" Hg
Pressure 1019 hPa
Elevation 119
METAR KJYO 202015Z AUTO 12004KT 10SM BKN024 BKN031 BKN037 25/21 A3008 RMK AO2
Observed Flight Rules
Aug-20 @ 20:15 UTC
(16 minutes ago)
MVFR
Wind Visibility
120° at 4 knots 10 miles
Clouds
  • Broken at 2,400' AGL
  • Broken at 3,100' AGL
  • Broken at 3,700' AGL
Temperature Dewpoint
25°C / 77°F 21°C / 70°F
Humidity Altimeter Pressure
79% 30.08" Hg 1019 hPa